Time;durP1;ratioP1;P1;durP2;ratioP2;P2;SDS_P1;SDS_P2;PMS_P1;PMS_P2;Temp;Humidity;BMP_temperature;BMP_pressure;BME280_temperature;BME280_humidity;BME280_pressure;Samples;Min_cycle;Max_cycle;Signal;HPM_P1;HPM_P2
2022/09/29 00:02:06;;;;;;;4.97;3.15;;;;;;;6.17;100.00;99033.66;6067115;29;20079;-92
2022/09/29 00:05:09;;;;;;;5.90;3.63;;;;;;;6.12;100.00;99037.56;6080542;29;20045;-92
2022/09/29 00:08:10;;;;;;;4.68;3.25;;;;;;;6.04;100.00;99038.22;6049062;29;20056;-92
2022/09/29 00:11:16;;;;;;;3.30;2.95;;;;;;;6.00;100.00;99036.84;6067172;29;20415;-92
2022/09/29 00:14:17;;;;;;;5.85;3.40;;;;;;;5.95;100.00;99041.53;6055653;29;20041;-91
2022/09/29 00:17:19;;;;;;;5.93;3.67;;;;;;;5.92;100.00;99039.22;6062689;29;20053;-92
2022/09/29 00:20:21;;;;;;;4.38;3.28;;;;;;;5.92;100.00;99042.59;6050041;29;20499;-91
2022/09/29 00:23:24;;;;;;;5.53;3.25;;;;;;;5.91;100.00;99038.38;6062421;29;20103;-92
2022/09/29 00:26:26;;;;;;;5.60;3.92;;;;;;;5.87;100.00;99036.22;6066448;29;20412;-93
2022/09/29 00:29:28;;;;;;;5.35;3.47;;;;;;;5.86;100.00;99040.50;6059970;29;20638;-92
2022/09/29 00:32:30;;;;;;;6.57;4.10;;;;;;;5.86;100.00;99045.66;6062908;29;20056;-92
2022/09/29 00:35:32;;;;;;;6.50;4.47;;;;;;;5.86;100.00;99045.66;6071275;29;20087;-92
2022/09/29 00:38:35;;;;;;;5.95;4.00;;;;;;;5.83;100.00;99041.59;6064730;29;20068;-92
2022/09/29 00:41:38;;;;;;;8.90;4.07;;;;;;;5.83;100.00;99045.91;6065917;29;20608;-92
2022/09/29 00:45:19;;;;;;;5.50;3.55;;;;;;;5.81;100.00;99048.63;6068199;29;20180;-91
2022/09/29 00:48:30;;;;;;;5.80;3.95;;;;;;;5.79;100.00;99040.22;6062700;29;20080;-92
2022/09/29 00:51:33;;;;;;;;;;;;;;;5.75;100.00;99046.56;6065483;29;20164;-91
2022/09/29 00:55:23;;;;;;;6.65;3.78;;;;;;;5.73;100.00;99043.28;6068212;29;20445;-92
2022/09/29 00:58:53;;;;;;;4.53;3.63;;;;;;;5.71;100.00;99042.59;6016575;29;20080;-92
2022/09/29 01:01:55;;;;;;;5.25;3.88;;;;;;;5.69;100.00;99044.50;6013020;29;20077;-92
2022/09/29 01:04:59;;;;;;;6.00;4.30;;;;;;;5.68;100.00;99042.84;5998734;29;20559;-92
2022/09/29 01:08:09;;;;;;;6.85;3.85;;;;;;;5.67;100.00;99036.13;6002980;29;20050;-92
2022/09/29 01:11:12;;;;;;;6.57;3.95;;;;;;;5.61;100.00;99036.59;6002095;29;20057;-92
2022/09/29 01:14:15;;;;;;;6.15;4.60;;;;;;;5.58;100.00;99029.97;6018545;29;20050;-92
2022/09/29 01:17:17;;;;;;;8.23;5.30;;;;;;;5.57;100.00;99035.25;6017942;29;20046;-91
2022/09/29 01:20:22;;;;;;;6.43;4.35;;;;;;;5.49;100.00;99032.47;6017708;29;20081;-92
2022/09/29 01:23:51;;;;;;;8.80;4.55;;;;;;;5.47;100.00;99042.88;6012534;29;20053;-92
2022/09/29 01:27:35;;;;;;;8.35;4.80;;;;;;;5.44;100.00;99045.69;6021245;29;20050;-92
2022/09/29 01:31:05;;;;;;;7.65;4.63;;;;;;;5.40;100.00;99045.13;5997125;29;20062;-92
2022/09/29 01:34:24;;;;;;;8.73;5.13;;;;;;;5.37;100.00;99047.13;6059860;29;20052;-92
2022/09/29 01:37:52;;;;;;;9.18;5.70;;;;;;;5.29;100.00;99052.88;6069027;29;20543;-92
2022/09/29 01:41:09;;;;;;;10.43;6.10;;;;;;;5.30;100.00;99062.19;6071078;29;20053;-92
2022/09/29 01:44:33;;;;;;;7.95;5.10;;;;;;;5.30;100.00;99057.06;6071002;29;20056;-92
2022/09/29 01:47:41;;;;;;;12.65;5.95;;;;;;;5.26;100.00;99065.13;6067638;29;20366;-92
2022/09/29 01:50:54;;;;;;;10.73;6.10;;;;;;;5.23;100.00;99061.06;6070395;29;20041;-92
2022/09/29 01:54:01;;;;;;;13.35;7.32;;;;;;;5.22;100.00;99061.19;6067023;29;20052;-92
2022/09/29 01:57:38;;;;;;;12.20;7.40;;;;;;;5.28;100.00;99058.13;6066519;29;20760;-92
2022/09/29 02:00:47;;;;;;;14.00;7.68;;;;;;;5.30;100.00;99049.38;6065031;29;20067;-91
2022/09/29 02:04:15;;;;;;;13.50;7.60;;;;;;;5.40;100.00;99044.31;6069121;29;20054;-92
2022/09/29 02:07:33;;;;;;;14.40;8.65;;;;;;;5.46;100.00;99053.25;6064478;29;20509;-91
2022/09/29 02:11:00;;;;;;;15.38;8.73;;;;;;;5.47;100.00;99049.78;6069084;29;20104;-92
2022/09/29 02:14:15;;;;;;;14.85;8.95;;;;;;;5.42;100.00;99047.56;6068521;29;20060;-92
2022/09/29 02:17:20;;;;;;;14.13;9.20;;;;;;;5.42;100.00;99047.56;6068369;29;20529;-92
2022/09/29 02:20:23;;;;;;;14.40;8.77;;;;;;;5.42;100.00;99042.44;6069082;29;20096;-92
2022/09/29 02:23:25;;;;;;;18.55;10.50;;;;;;;5.44;100.00;99047.44;6067597;29;20526;-91
2022/09/29 02:26:33;;;;;;;18.77;10.55;;;;;;;5.42;100.00;99046.78;6066881;29;20056;-91
2022/09/29 02:29:35;;;;;;;22.55;12.30;;;;;;;5.37;100.00;99053.06;6065467;29;20059;-93
2022/09/29 02:32:37;;;;;;;23.30;12.75;;;;;;;5.34;100.00;99045.63;6069668;29;20092;-92
2022/09/29 02:35:50;;;;;;;21.23;11.73;;;;;;;5.36;100.00;99046.31;6067010;29;20427;-92
2022/09/29 02:39:08;;;;;;;22.70;11.70;;;;;;;5.38;100.00;99051.31;6069422;29;20048;-93
2022/09/29 02:42:28;;;;;;;17.42;9.18;;;;;;;5.36;100.00;99056.56;6060068;29;20503;-92
2022/09/29 02:46:05;;;;;;;14.83;7.90;;;;;;;5.34;100.00;99061.03;6065467;29;20045;-92
2022/09/29 02:49:26;;;;;;;13.35;6.93;;;;;;;5.26;100.00;99063.38;6060969;29;20143;-92
2022/09/29 02:52:37;;;;;;;12.80;6.82;;;;;;;5.27;100.00;99061.66;6066828;29;20075;-91
2022/09/29 02:55:57;;;;;;;11.52;6.88;;;;;;;5.20;100.00;99069.00;6071680;29;20038;-92
2022/09/29 02:59:18;;;;;;;12.33;7.47;;;;;;;5.18;100.00;99069.13;6072227;29;20064;-92
2022/09/29 03:02:26;;;;;;;17.30;9.20;;;;;;;5.14;100.00;99066.94;6061559;29;20044;-93
2022/09/29 03:05:28;;;;;;;15.40;8.93;;;;;;;5.15;100.00;99073.69;6064617;29;20041;-92
2022/09/29 03:08:32;;;;;;;14.93;9.20;;;;;;;5.14;100.00;99072.88;6068009;29;20507;-93
2022/09/29 03:11:33;;;;;;;16.00;9.93;;;;;;;5.12;100.00;99074.75;6067040;29;20495;-92
2022/09/29 03:14:35;;;;;;;17.70;10.07;;;;;;;5.12;100.00;99066.25;6068559;29;20076;-93
2022/09/29 03:17:37;;;;;;;18.15;10.32;;;;;;;5.14;100.00;99070.31;6066835;29;20048;-92
2022/09/29 03:20:39;;;;;;;20.05;10.60;;;;;;;5.14;100.00;99066.94;6067090;29;20639;-93
2022/09/29 03:23:41;;;;;;;19.52;9.63;;;;;;;5.14;100.00;99069.50;6068533;29;20056;-93
2022/09/29 03:26:43;;;;;;;21.40;11.30;;;;;;;5.16;100.00;99077.88;6067394;29;20052;-92
2022/09/29 03:29:45;;;;;;;21.70;11.65;;;;;;;5.21;100.00;99074.94;6063954;29;20115;-93
2022/09/29 03:32:46;;;;;;;19.65;10.63;;;;;;;5.24;100.00;99074.69;6077883;29;20716;-92
2022/09/29 03:35:48;;;;;;;16.60;10.20;;;;;;;5.33;100.00;99077.34;6066950;29;20543;-93
2022/09/29 03:38:50;;;;;;;18.95;10.25;;;;;;;5.44;100.00;99075.66;6069846;29;20131;-92
2022/09/29 03:41:53;;;;;;;17.92;9.60;;;;;;;5.50;100.00;99077.75;6082027;29;20047;-93
2022/09/29 03:44:54;;;;;;;19.98;10.18;;;;;;;5.57;100.00;99076.31;6068653;29;20040;-92
2022/09/29 03:47:56;;;;;;;18.95;10.52;;;;;;;5.66;100.00;99079.88;6059318;29;20440;-93
2022/09/29 03:50:58;;;;;;;18.25;9.82;;;;;;;5.69;100.00;99090.72;6065941;29;20143;-93
2022/09/29 03:54:00;;;;;;;17.95;9.57;;;;;;;5.72;100.00;99090.44;6064542;29;20076;-93
2022/09/29 03:57:03;;;;;;;19.45;10.75;;;;;;;5.74;100.00;99086.00;6068458;29;20460;-93
2022/09/29 04:00:05;;;;;;;20.50;10.70;;;;;;;5.76;100.00;99088.44;6064337;29;20044;-93
2022/09/29 04:03:08;;;;;;;19.95;10.65;;;;;;;5.69;100.00;99090.72;6068939;29;20096;-93
2022/09/29 04:06:11;;;;;;;19.08;10.05;;;;;;;5.63;100.00;99095.53;6069418;29;20057;-93
2022/09/29 04:09:13;;;;;;;18.80;9.80;;;;;;;5.56;100.00;99100.34;6059231;29;20053;-93
2022/09/29 04:12:15;;;;;;;17.40;10.35;;;;;;;5.49;100.00;99109.47;6066135;29;20041;-94
2022/09/29 04:15:17;;;;;;;19.83;10.90;;;;;;;5.38;100.00;99103.44;6066353;29;20045;-93
2022/09/29 04:18:19;;;;;;;18.63;10.65;;;;;;;5.35;100.00;99118.28;6063105;29;20049;-93
2022/09/29 04:21:21;;;;;;;18.40;9.35;;;;;;;5.37;100.00;99122.34;6049703;29;20072;-94
2022/09/29 04:24:23;;;;;;;19.23;10.48;;;;;;;5.41;100.00;99112.66;6048817;29;20168;-93
2022/09/29 04:27:25;;;;;;;16.17;9.63;;;;;;;5.45;100.00;99108.09;6073818;29;20617;-94
2022/09/29 04:30:27;;;;;;;16.10;9.45;;;;;;;5.45;100.00;99120.94;6064469;29;20047;-93
2022/09/29 04:33:30;;;;;;;16.08;9.40;;;;;;;5.38;100.00;99115.47;6066242;29;20051;-93
2022/09/29 04:36:31;;;;;;;20.27;9.85;;;;;;;5.28;100.00;99112.81;6064983;29;20041;-93
2022/09/29 04:39:33;;;;;;;14.68;8.70;;;;;;;5.21;100.00;99111.66;6061355;29;20037;-93
2022/09/29 04:42:36;;;;;;;18.40;9.85;;;;;;;5.14;100.00;99118.22;6056155;29;20479;-93
2022/09/29 04:45:38;;;;;;;16.40;9.85;;;;;;;5.10;100.00;99119.41;6064908;29;20048;-93
2022/09/29 04:48:40;;;;;;;17.55;9.68;;;;;;;5.03;100.00;99123.41;6065907;29;20073;-93
2022/09/29 04:51:42;;;;;;;15.55;9.65;;;;;;;4.95;100.00;99122.25;6062415;29;20432;-94
2022/09/29 04:54:44;;;;;;;16.60;9.25;;;;;;;4.94;100.00;99128.31;6064646;29;20052;-94
2022/09/29 04:57:47;;;;;;;17.70;10.18;;;;;;;4.92;100.00;99122.50;6059042;29;20337;-94
2022/09/29 05:00:49;;;;;;;18.70;10.93;;;;;;;4.91;100.00;99125.97;6070814;29;20156;-92
2022/09/29 05:03:51;;;;;;;19.60;11.10;;;;;;;4.87;100.00;99128.88;6079736;29;20096;-93
2022/09/29 05:06:53;;;;;;;17.73;9.98;;;;;;;4.87;100.00;99132.28;6062401;29;20085;-93
2022/09/29 05:09:55;;;;;;;21.33;10.90;;;;;;;4.86;100.00;99137.53;6065653;29;20258;-93
2022/09/29 05:12:57;;;;;;;21.40;10.88;;;;;;;4.86;100.00;99137.53;6054658;29;20573;-93
2022/09/29 05:15:59;;;;;;;20.95;11.15;;;;;;;4.88;100.00;99146.72;6066136;29;20534;-94
2022/09/29 05:19:02;;;;;;;21.35;11.45;;;;;;;4.92;100.00;99142.19;6069962;29;20052;-92
2022/09/29 05:22:05;;;;;;;21.90;11.57;;;;;;;4.95;100.00;99142.75;6065304;29;20562;-93
2022/09/29 05:25:07;;;;;;;22.13;11.90;;;;;;;4.97;100.00;99145.22;6072399;29;20136;-93
2022/09/29 05:28:10;;;;;;;21.85;11.80;;;;;;;4.98;100.00;99146.84;6062899;29;21396;-93
2022/09/29 05:31:14;;;;;;;21.65;11.10;;;;;;;4.97;100.00;99150.34;6069540;29;20041;-93
2022/09/29 05:34:16;;;;;;;22.63;11.60;;;;;;;5.00;100.00;99149.28;6064120;29;20119;-93
2022/09/29 05:37:18;;;;;;;20.95;11.75;;;;;;;4.95;100.00;99145.31;6067249;29;20037;-93
2022/09/29 05:40:22;;;;;;;21.33;10.48;;;;;;;4.97;100.00;99145.22;6064254;29;20168;-93
2022/09/29 05:43:25;;;;;;;23.65;12.65;;;;;;;4.98;100.00;99151.97;6058587;29;20484;-93
2022/09/29 05:46:27;;;;;;;21.75;11.50;;;;;;;4.96;100.00;99149.50;6068091;29;20048;-93
2022/09/29 05:49:30;;;;;;;22.88;11.23;;;;;;;5.00;100.00;99151.84;6061522;29;20047;-92
2022/09/29 05:52:32;;;;;;;20.50;11.63;;;;;;;5.02;100.00;99148.22;6056278;29;20055;-93
2022/09/29 05:55:38;;;;;;;21.63;11.35;;;;;;;5.04;100.00;99146.34;6065506;29;20044;-93
2022/09/29 05:58:40;;;;;;;21.25;12.27;;;;;;;5.06;100.00;99151.34;6062373;29;20036;-93
2022/09/29 06:01:42;;;;;;;19.40;10.82;;;;;;;5.08;100.00;99149.50;6044133;29;20414;-93
2022/09/29 06:04:44;;;;;;;20.88;11.07;;;;;;;5.13;100.00;99157.63;6060422;29;20144;-93
2022/09/29 06:07:46;;;;;;;20.13;10.93;;;;;;;5.14;100.00;99154.13;6064923;29;20044;-94
2022/09/29 06:10:48;;;;;;;21.65;11.50;;;;;;;5.16;100.00;99154.81;6052981;29;20471;-93
2022/09/29 06:13:52;;;;;;;20.17;10.77;;;;;;;5.18;100.00;99161.47;6064664;29;20047;-93
2022/09/29 06:16:54;;;;;;;21.25;11.60;;;;;;;5.22;100.00;99159.50;6078806;29;20036;-92
2022/09/29 06:19:57;;;;;;;20.52;11.52;;;;;;;5.27;100.00;99170.22;6063681;29;20052;-93
2022/09/29 06:22:59;;;;;;;21.90;11.45;;;;;;;5.29;100.00;99164.94;6068809;29;20076;-94
2022/09/29 06:26:03;;;;;;;20.65;11.73;;;;;;;5.30;100.00;99164.81;6069290;29;20063;-93
2022/09/29 06:29:05;;;;;;;20.10;11.23;;;;;;;5.34;100.00;99170.50;6049614;29;20049;-93
2022/09/29 06:32:08;;;;;;;23.33;11.27;;;;;;;5.36;100.00;99169.47;6067733;29;20065;-94
2022/09/29 06:38:30;;;;;;;22.48;12.10;;;;;;;5.42;100.00;99173.31;6070071;29;20044;-93
2022/09/29 06:41:34;;;;;;;19.80;11.63;;;;;;;5.51;100.00;99176.88;6068036;29;20484;-93
2022/09/29 06:44:37;;;;;;;22.52;12.63;;;;;;;5.51;100.00;99167.44;6068657;29;20483;-94
2022/09/29 06:47:39;;;;;;;19.92;11.73;;;;;;;5.57;100.00;99176.41;6058156;29;20060;-93
2022/09/29 06:50:41;;;;;;;19.48;10.93;;;;;;;5.58;100.00;99181.41;6070677;29;20095;-94
2022/09/29 06:53:44;;;;;;;22.52;12.38;;;;;;;5.67;100.00;99184.19;6061593;29;20044;-94
2022/09/29 06:56:47;;;;;;;23.55;12.68;;;;;;;5.72;100.00;99185.44;6067011;29;20040;-93
2022/09/29 06:59:49;;;;;;;22.30;12.05;;;;;;;5.78;100.00;99187.50;6065860;29;20060;-94
2022/09/29 07:02:51;;;;;;;21.70;12.52;;;;;;;5.85;100.00;99187.84;6061273;29;20053;-94
2022/09/29 07:05:53;;;;;;;24.73;13.65;;;;;;;5.89;100.00;99191.78;6056662;29;20041;-92
2022/09/29 07:09:16;;;;;;;21.75;12.30;;;;;;;5.95;100.00;99186.19;6062122;29;20051;-93
2022/09/29 07:12:18;;;;;;;25.73;13.15;;;;;;;6.02;100.00;99184.75;6060229;29;20161;-93
2022/09/29 07:15:20;;;;;;;22.27;12.45;;;;;;;6.11;100.00;99182.34;6072154;29;20119;-92
2022/09/29 07:18:22;;;;;;;22.73;12.70;;;;;;;6.20;100.00;99184.16;6067383;29;20053;-92
2022/09/29 07:21:25;;;;;;;24.65;13.38;;;;;;;6.32;100.00;99192.63;6065712;29;20454;-92
2022/09/29 07:24:26;;;;;;;22.33;12.32;;;;;;;6.49;100.00;99193.81;6061873;29;20495;-94
2022/09/29 07:27:28;;;;;;;24.55;13.00;;;;;;;6.77;100.00;99198.25;6065583;29;20052;-93
2022/09/29 07:30:30;;;;;;;24.88;13.98;;;;;;;7.12;100.00;99202.94;6066927;29;20052;-93
2022/09/29 07:33:42;;;;;;;25.88;13.80;;;;;;;7.53;100.00;99208.06;6066622;29;20626;-93
2022/09/29 07:36:44;;;;;;;25.85;14.32;;;;;;;7.92;100.00;99219.16;6052538;29;20056;-94
2022/09/29 07:39:46;;;;;;;25.25;14.38;;;;;;;8.32;100.00;99219.91;6062450;29;20180;-92
2022/09/29 07:42:48;;;;;;;22.67;13.45;;;;;;;8.62;100.00;99219.75;6064377;29;20040;-91
2022/09/29 07:45:51;;;;;;;23.83;13.63;;;;;;;8.91;100.00;99221.41;6067843;29;20044;-92
2022/09/29 07:48:53;;;;;;;23.42;12.55;;;;;;;9.11;100.00;99232.44;6063789;29;20107;-91
2022/09/29 07:51:55;;;;;;;22.27;12.85;;;;;;;9.27;100.00;99224.09;6066405;29;20036;-91
2022/09/29 07:54:57;;;;;;;22.13;12.07;;;;;;;9.41;100.00;99233.09;6066687;29;20040;-91
2022/09/29 07:58:00;;;;;;;23.17;12.68;;;;;;;9.56;100.00;99223.06;6066920;29;20108;-91
2022/09/29 08:01:05;;;;;;;21.83;12.80;;;;;;;9.70;100.00;99225.94;6067249;29;20442;-91
2022/09/29 08:04:07;;;;;;;21.15;12.75;;;;;;;9.85;100.00;99234.00;6066047;29;20060;-92
2022/09/29 08:07:09;;;;;;;25.17;12.98;;;;;;;9.95;100.00;99244.25;6062444;29;20605;-91
2022/09/29 08:10:11;;;;;;;22.73;12.80;;;;;;;10.08;100.00;99243.88;6069697;29;20475;-91
2022/09/29 08:13:18;;;;;;;21.27;12.25;;;;;;;10.18;100.00;99247.19;6067240;29;20045;-92
2022/09/29 08:16:20;;;;;;;23.00;13.35;;;;;;;10.26;100.00;99243.84;6068050;29;20048;-91
2022/09/29 08:19:23;;;;;;;18.83;12.30;;;;;;;10.31;100.00;99246.81;6066601;29;20048;-92
2022/09/29 08:22:25;;;;;;;17.75;11.85;;;;;;;10.35;100.00;99259.31;6067792;29;20040;-91
2022/09/29 08:25:27;;;;;;;16.92;10.63;;;;;;;10.39;100.00;99257.25;6053629;29;20507;-92
2022/09/29 08:28:30;;;;;;;14.95;10.40;;;;;;;10.49;100.00;99255.38;6055088;29;20536;-91
2022/09/29 08:31:33;;;;;;;17.75;11.00;;;;;;;10.56;100.00;99261.56;6066686;29;20040;-91
2022/09/29 08:34:35;;;;;;;15.80;10.35;;;;;;;10.70;100.00;99262.75;6069377;29;20149;-90
2022/09/29 08:37:37;;;;;;;17.33;10.50;;;;;;;10.80;100.00;99267.84;6068606;29;20712;-91
2022/09/29 08:40:39;;;;;;;17.60;10.27;;;;;;;10.88;100.00;99269.66;6065997;29;20056;-90
2022/09/29 08:43:44;;;;;;;18.45;9.98;;;;;;;10.87;100.00;99271.44;6061257;29;20033;-91
2022/09/29 08:47:03;;;;;;;15.45;10.10;;;;;;;10.91;100.00;99270.16;6066511;29;20127;-91
2022/09/29 08:50:36;;;;;;;12.95;8.50;;;;;;;10.85;100.00;99278.53;6060542;29;20049;-90
2022/09/29 08:53:44;;;;;;;14.35;8.98;;;;;;;10.81;100.00;99276.41;6066487;29;20045;-90
2022/09/29 08:57:04;;;;;;;11.43;7.45;;;;;;;10.60;100.00;99274.19;6065677;29;20048;-91
2022/09/29 09:00:11;;;;;;;12.48;8.02;;;;;;;10.42;100.00;99276.81;6062038;29;20083;-91
2022/09/29 09:03:25;;;;;;;14.40;7.88;;;;;;;10.16;100.00;99275.00;6060663;29;20049;-91
2022/09/29 09:06:43;;;;;;;14.55;8.82;;;;;;;9.90;100.00;99275.72;6057757;29;20099;-91
2022/09/29 09:09:58;;;;;;;13.35;8.57;;;;;;;9.62;100.00;99276.75;6070641;29;20055;-91
2022/09/29 09:13:42;;;;;;;12.90;8.52;;;;;;;9.46;100.00;99279.94;6060291;29;20052;-91
2022/09/29 09:16:59;;;;;;;11.65;7.82;;;;;;;9.45;100.00;99276.56;6061185;29;20057;-92
2022/09/29 09:20:13;;;;;;;12.32;8.32;;;;;;;9.43;100.00;99275.09;6050139;29;20123;-92
2022/09/29 09:23:32;;;;;;;15.48;8.50;;;;;;;9.41;100.00;99285.56;6066809;29;20052;-91
2022/09/29 09:26:41;;;;;;;12.05;7.75;;;;;;;9.43;100.00;99290.59;6078399;29;20835;-92
2022/09/29 09:29:47;;;;;;;12.98;8.63;;;;;;;9.47;100.00;99287.56;6067363;29;20380;-91
2022/09/29 09:32:56;;;;;;;9.50;6.65;;;;;;;9.53;100.00;99296.50;6067728;29;20049;-92
2022/09/29 09:36:13;;;;;;;11.75;7.38;;;;;;;9.64;100.00;99285.97;6066384;29;20041;-91
2022/09/29 09:39:33;;;;;;;10.90;6.88;;;;;;;9.70;100.00;99300.88;6067000;29;20103;-91
2022/09/29 09:42:39;;;;;;;13.45;7.85;;;;;;;9.81;100.00;99291.28;6067694;29;20044;-91
2022/09/29 09:45:59;;;;;;;12.10;7.13;;;;;;;9.90;100.00;99301.56;6062538;29;20036;-91
2022/09/29 09:49:16;;;;;;;12.05;7.60;;;;;;;9.99;100.00;99297.31;6070391;29;20044;-91
2022/09/29 09:52:40;;;;;;;5.55;3.92;;;;;;;10.18;100.00;99298.09;6070157;29;20052;-91
2022/09/29 09:55:43;;;;;;;10.23;4.65;;;;;;;10.34;100.00;99301.66;6083664;29;20045;-91
2022/09/29 09:58:58;;;;;;;6.88;4.72;;;;;;;10.41;100.00;99296.72;6063616;29;20045;-91
2022/09/29 10:02:00;;;;;;;6.22;3.85;;;;;;;10.52;100.00;99295.66;6057622;29;20049;-91
2022/09/29 10:05:03;;;;;;;7.28;4.43;;;;;;;10.57;100.00;99296.81;6070872;29;20072;-91
2022/09/29 10:08:19;;;;;;;6.65;3.30;;;;;;;10.82;100.00;99294.38;6063973;29;20048;-91
2022/09/29 10:11:23;;;;;;;5.50;3.45;;;;;;;11.05;100.00;99291.25;6065043;29;20081;-90
2022/09/29 10:14:27;;;;;;;7.47;4.35;;;;;;;11.24;100.00;99296.22;6071068;29;20042;-90
2022/09/29 10:17:40;;;;;;;6.47;4.57;;;;;;;11.30;100.00;99287.00;6064221;29;20075;-90
2022/09/29 10:20:42;;;;;;;6.65;4.25;;;;;;;11.38;100.00;99284.44;6065935;29;20044;-90
2022/09/29 10:23:51;;;;;;;8.52;3.40;;;;;;;11.41;100.00;99290.13;6069448;29;20372;-91
2022/09/29 10:26:56;;;;;;;4.80;3.08;;;;;;;11.42;100.00;99294.31;6071394;29;20074;-91
2022/09/29 10:29:59;;;;;;;4.10;2.85;;;;;;;11.60;100.00;99294.22;6061328;29;20135;-90
2022/09/29 10:33:04;;;;;;;4.07;2.53;;;;;;;11.55;100.00;99298.25;6066792;29;20470;-90
2022/09/29 10:36:12;;;;;;;;;;;;;;;11.27;100.00;99290.72;6055102;29;20120;-91
2022/09/29 10:39:39;;;;;;;2.83;2.30;;;;;;;11.16;100.00;99296.19;6070609;29;20053;-91
2022/09/29 10:42:45;;;;;;;2.25;2.00;;;;;;;11.55;100.00;99293.06;6068636;29;20057;-90
2022/09/29 10:45:47;;;;;;;4.18;2.80;;;;;;;11.89;100.00;99299.97;6071020;29;20067;-91
2022/09/29 10:49:08;;;;;;;4.20;3.30;;;;;;;12.04;100.00;99293.19;6071180;29;20153;-91
2022/09/29 10:52:40;;;;;;;6.38;3.65;;;;;;;12.09;100.00;99295.31;6066850;29;20048;-91
2022/09/29 10:55:50;;;;;;;3.42;2.63;;;;;;;12.26;100.00;99294.34;6070079;29;20511;-91
2022/09/29 10:59:01;;;;;;;5.03;3.33;;;;;;;12.37;100.00;99300.97;6071177;29;20037;-89
2022/09/29 11:02:24;;;;;;;4.53;3.10;;;;;;;12.52;100.00;99288.97;6072380;29;20415;-91
2022/09/29 11:05:27;;;;;;;4.15;2.90;;;;;;;12.80;100.00;99293.78;6069563;29;20411;-91
2022/09/29 11:08:29;;;;;;;4.85;3.38;;;;;;;13.33;100.00;99297.53;6067655;29;20206;-90
2022/09/29 11:11:35;;;;;;;3.13;2.58;;;;;;;13.53;100.00;99305.72;6066072;29;20550;-90
2022/09/29 11:14:36;;;;;;;3.10;2.60;;;;;;;13.39;100.00;99299.47;6064000;29;20052;-91
2022/09/29 11:17:47;;;;;;;5.78;3.65;;;;;;;13.22;100.00;99308.28;6061607;29;20136;-91
2022/09/29 11:21:06;;;;;;;7.18;4.57;;;;;;;12.88;100.00;99317.94;6066757;29;20036;-92
2022/09/29 11:24:50;;;;;;;7.45;4.72;;;;;;;12.65;100.00;99320.44;6066588;29;20055;-91
2022/09/29 11:28:20;;;;;;;9.10;4.50;;;;;;;12.43;100.00;99321.09;6062104;29;20105;-92
2022/09/29 11:31:56;;;;;;;6.18;3.53;;;;;;;12.28;100.00;99326.13;6067320;29;20052;-92
2022/09/29 11:35:22;;;;;;;4.57;3.53;;;;;;;12.25;100.00;99322.06;6067857;29;20380;-92
2022/09/29 11:38:43;;;;;;;3.80;2.92;;;;;;;12.29;100.00;99325.94;6067501;29;20125;-91
2022/09/29 11:41:52;;;;;;;4.20;2.83;;;;;;;12.21;100.00;99328.53;6065864;29;20057;-93
2022/09/29 11:45:02;;;;;;;4.43;3.38;;;;;;;12.17;100.00;99323.84;6065896;29;20176;-93
2022/09/29 11:48:16;;;;;;;5.03;3.53;;;;;;;12.14;100.00;99327.56;6063376;29;20535;-90
2022/09/29 11:51:44;;;;;;;4.82;3.60;;;;;;;12.19;100.00;99332.28;6068204;29;20463;-92
2022/09/29 11:54:55;;;;;;;4.78;3.05;;;;;;;12.19;100.00;99337.47;6061802;29;20185;-92
2022/09/29 11:58:34;;;;;;;5.88;3.33;;;;;;;12.35;100.00;99339.28;6064335;29;20056;-91
2022/09/29 12:02:16;;;;;;;5.18;2.70;;;;;;;12.56;100.00;99339.56;6065058;29;20056;-91
2022/09/29 12:05:24;;;;;;;4.75;3.20;;;;;;;12.79;100.00;99331.91;6056741;29;21020;-91
2022/09/29 12:08:44;;;;;;;3.55;2.67;;;;;;;12.93;100.00;99341.63;6060287;29;20041;-91
2022/09/29 12:11:59;;;;;;;3.92;2.80;;;;;;;12.96;100.00;99339.69;6058353;29;20319;-91
2022/09/29 12:15:30;;;;;;;4.78;2.38;;;;;;;12.76;100.00;99337.44;6058823;29;20071;-90
2022/09/29 12:18:43;;;;;;;4.85;2.83;;;;;;;12.52;100.00;99337.47;6069798;29;20043;-91
2022/09/29 12:21:51;;;;;;;2.50;2.20;;;;;;;12.36;100.00;99330.50;6062019;29;20112;-91
2022/09/29 12:24:56;;;;;;;2.75;1.80;;;;;;;12.19;100.00;99333.06;6048278;29;20071;-90
2022/09/29 12:28:11;;;;;;;2.30;1.80;;;;;;;12.18;100.00;99328.88;6073444;29;20499;-91
2022/09/29 12:31:30;;;;;;;2.53;2.33;;;;;;;12.35;100.00;99334.88;6068369;29;20060;-91
2022/09/29 12:34:32;;;;;;;3.78;1.60;;;;;;;12.57;100.00;99330.84;6069946;29;20119;-91
2022/09/29 12:38:00;;;;;;;3.47;2.17;;;;;;;12.53;100.00;99337.31;6069195;29;20048;-91
2022/09/29 12:41:13;;;;;;;3.58;2.03;;;;;;;12.32;100.00;99335.19;6066531;29;20291;-91
2022/09/29 12:44:32;;;;;;;2.60;2.33;;;;;;;12.61;100.00;99329.50;6068008;29;20048;-90
2022/09/29 12:47:51;;;;;;;3.10;2.58;;;;;;;12.90;100.00;99331.59;6064279;29;20048;-91
2022/09/29 12:51:02;;;;;;;2.78;2.25;;;;;;;12.95;100.00;99338.09;6067046;29;20056;-90
2022/09/29 12:54:08;;;;;;;3.33;2.53;;;;;;;12.96;99.88;99339.69;6068319;29;20140;-91
2022/09/29 12:57:16;;;;;;;;;;;;;;;12.99;98.84;99336.75;6069436;29;20052;-91
2022/09/29 13:00:18;;;;;;;2.00;1.60;;;;;;;13.11;95.84;99341.41;6069034;29;19927;-91
2022/09/29 13:03:26;;;;;;;3.67;2.00;;;;;;;13.35;98.47;99344.97;6065862;29;20693;-91
2022/09/29 13:07:09;;;;;;;3.35;1.80;;;;;;;13.67;93.83;99338.81;6061513;29;20056;-91
2022/09/29 13:10:32;;;;;;;2.97;1.85;;;;;;;13.84;92.74;99336.94;6057614;29;20045;-91
2022/09/29 13:13:50;;;;;;;3.10;2.28;;;;;;;13.72;94.32;99340.91;6066233;29;20116;-91
2022/09/29 13:17:12;;;;;;;2.20;2.00;;;;;;;13.44;92.67;99341.38;6067843;29;20825;-91
2022/09/29 13:20:33;;;;;;;4.50;1.85;;;;;;;13.07;93.45;99347.16;6071549;29;20052;-91
2022/09/29 13:23:45;;;;;;;;;;;;;;;12.83;96.58;99341.00;6075495;29;20045;-91
2022/09/29 13:26:58;;;;;;;3.28;1.80;;;;;;;12.68;97.91;99347.84;6065461;29;19934;-91
2022/09/29 13:30:15;;;;;;;3.88;2.10;;;;;;;12.61;97.53;99347.69;6061884;29;20511;-92
2022/09/29 13:33:24;;;;;;;2.78;2.10;;;;;;;12.49;100.00;99341.19;6074227;29;20120;-90
2022/09/29 13:36:42;;;;;;;2.95;2.25;;;;;;;12.40;100.00;99344.78;6066025;29;20496;-90
2022/09/29 13:39:59;;;;;;;3.45;2.80;;;;;;;12.42;100.00;99350.59;6056772;29;20056;-90
2022/09/29 13:44:02;;;;;;;4.88;2.92;;;;;;;12.42;100.00;99348.00;6070374;29;20044;-90
2022/09/29 13:47:31;;;;;;;3.40;2.42;;;;;;;12.38;100.00;99357.09;6067985;29;20144;-91
2022/09/29 13:50:44;;;;;;;4.28;2.78;;;;;;;12.54;100.00;99349.31;6069726;29;20037;-91
2022/09/29 13:53:45;;;;;;;3.38;2.55;;;;;;;12.91;100.00;99347.97;6068551;29;20037;-91
2022/09/29 13:57:05;;;;;;;3.25;2.28;;;;;;;13.61;96.07;99349.88;6063949;29;20395;-90
2022/09/29 14:00:18;;;;;;;5.13;2.17;;;;;;;14.37;90.43;99344.88;6064808;29;20407;-91
2022/09/29 14:03:47;;;;;;;6.93;3.03;;;;;;;15.19;84.28;99351.94;6054508;29;20067;-91
2022/09/29 14:06:49;;;;;;;4.05;2.63;;;;;;;15.75;80.81;99343.63;6065775;29;20064;-91
2022/09/29 14:09:51;;;;;;;6.53;3.03;;;;;;;16.09;80.46;99356.84;6068180;29;20499;-91
2022/09/29 14:13:02;;;;;;;2.50;2.30;;;;;;;16.02;79.86;99352.56;6075647;29;20041;-91
2022/09/29 14:16:32;;;;;;;3.88;2.50;;;;;;;15.98;79.98;99352.13;6073542;29;20165;-90
2022/09/29 14:19:49;;;;;;;3.70;2.35;;;;;;;15.70;79.05;99352.84;6087941;29;20036;-89
2022/09/29 14:22:54;;;;;;;4.45;2.58;;;;;;;15.08;80.89;99345.41;6072608;29;20037;-90
2022/09/29 14:25:56;;;;;;;3.35;2.25;;;;;;;14.55;84.33;99347.19;6066355;29;20060;-90
2022/09/29 14:29:02;;;;;;;3.25;2.20;;;;;;;14.11;87.90;99355.63;6064810;29;20045;-90
2022/09/29 14:32:04;;;;;;;2.65;2.10;;;;;;;13.74;89.97;99354.56;6066651;29;21043;-90
2022/09/29 14:35:16;;;;;;;2.45;2.05;;;;;;;13.61;91.42;99351.69;6068441;29;20051;-91
2022/09/29 14:38:24;;;;;;;2.85;2.20;;;;;;;14.09;91.35;99361.00;6076022;29;20044;-90
2022/09/29 14:41:32;;;;;;;3.83;2.13;;;;;;;14.67;89.91;99356.19;6073106;29;20152;-91
2022/09/29 14:52:16;;;;;;;3.28;2.20;;;;;;;15.44;81.12;99368.13;6072605;29;20483;-91